sensor_id;sensor_type;location;lat;lon;timestamp;pressure;altitude;pressure_sealevel;temperature;humidity
62402;BME280;48440;51.224;22.506;2023-07-13T00:01:29;98710.53;;;21.83;71.72
62402;BME280;48440;51.224;22.506;2023-07-13T00:03:56;98711.25;;;21.80;72.16
62402;BME280;48440;51.224;22.506;2023-07-13T00:06:22;98714.34;;;21.78;72.27
62402;BME280;48440;51.224;22.506;2023-07-13T00:08:48;98713.53;;;21.78;72.29
62402;BME280;48440;51.224;22.506;2023-07-13T00:11:15;98709.97;;;21.77;72.18
62402;BME280;48440;51.224;22.506;2023-07-13T00:13:42;98723.78;;;21.77;72.11
62402;BME280;48440;51.224;22.506;2023-07-13T00:16:09;98730.09;;;21.78;71.95
62402;BME280;48440;51.224;22.506;2023-07-13T00:18:35;98731.13;;;21.73;72.07
62402;BME280;48440;51.224;22.506;2023-07-13T00:21:00;98726.41;;;21.74;71.83
62402;BME280;48440;51.224;22.506;2023-07-13T00:23:41;98720.88;;;21.74;71.99
62402;BME280;48440;51.224;22.506;2023-07-13T00:26:08;98725.13;;;21.71;71.96
62402;BME280;48440;51.224;22.506;2023-07-13T00:28:34;98721.56;;;21.71;71.90
62402;BME280;48440;51.224;22.506;2023-07-13T00:31:01;98723.75;;;21.65;72.41
62402;BME280;48440;51.224;22.506;2023-07-13T00:33:28;98718.75;;;21.58;72.78
62402;BME280;48440;51.224;22.506;2023-07-13T00:35:54;98722.34;;;21.59;72.72
62402;BME280;48440;51.224;22.506;2023-07-13T00:38:21;98717.53;;;21.56;72.89
62402;BME280;48440;51.224;22.506;2023-07-13T00:40:47;98727.63;;;21.52;73.04
62402;BME280;48440;51.224;22.506;2023-07-13T00:43:16;98723.13;;;21.47;73.31
62402;BME280;48440;51.224;22.506;2023-07-13T00:48:27;98720.22;;;21.44;73.23
62402;BME280;48440;51.224;22.506;2023-07-13T00:50:55;98724.13;;;21.43;73.39
62402;BME280;48440;51.224;22.506;2023-07-13T00:53:24;98712.63;;;21.41;73.49
62402;BME280;48440;51.224;22.506;2023-07-13T00:55:51;98716.41;;;21.36;73.48
62402;BME280;48440;51.224;22.506;2023-07-13T00:58:19;98722.72;;;21.37;73.38
62402;BME280;48440;51.224;22.506;2023-07-13T01:00:47;98720.16;;;21.31;73.42
62402;BME280;48440;51.224;22.506;2023-07-13T01:03:14;98724.09;;;21.30;73.53
62402;BME280;48440;51.224;22.506;2023-07-13T01:05:39;98726.59;;;21.23;73.55
62402;BME280;48440;51.224;22.506;2023-07-13T01:08:05;98724.19;;;21.22;73.26
62402;BME280;48440;51.224;22.506;2023-07-13T01:10:31;98725.03;;;21.14;73.91
62402;BME280;48440;51.224;22.506;2023-07-13T01:13:05;98720.91;;;21.20;73.80
62402;BME280;48440;51.224;22.506;2023-07-13T01:15:38;98716.72;;;21.22;73.67
62402;BME280;48440;51.224;22.506;2023-07-13T01:18:11;98715.75;;;21.18;73.35
62402;BME280;48440;51.224;22.506;2023-07-13T01:20:38;98729.06;;;21.16;73.29
62402;BME280;48440;51.224;22.506;2023-07-13T01:23:09;98725.03;;;21.14;73.65
62402;BME280;48440;51.224;22.506;2023-07-13T01:25:36;98735.25;;;21.13;73.51
62402;BME280;48440;51.224;22.506;2023-07-13T01:28:04;98722.47;;;21.09;73.46
62402;BME280;48440;51.224;22.506;2023-07-13T01:30:29;98723.69;;;20.99;73.93
62402;BME280;48440;51.224;22.506;2023-07-13T01:32:56;98731.41;;;20.85;74.56
62402;BME280;48440;51.224;22.506;2023-07-13T01:35:21;98726.53;;;20.90;74.32
62402;BME280;48440;51.224;22.506;2023-07-13T01:37:47;98733.19;;;20.89;74.35
62402;BME280;48440;51.224;22.506;2023-07-13T01:40:12;98733.56;;;20.79;74.51
62402;BME280;48440;51.224;22.506;2023-07-13T01:42:38;98742.88;;;20.75;74.81
62402;BME280;48440;51.224;22.506;2023-07-13T01:45:04;98747.91;;;20.73;74.56
62402;BME280;48440;51.224;22.506;2023-07-13T01:47:30;98751.47;;;20.73;74.85
62402;BME280;48440;51.224;22.506;2023-07-13T01:49:56;98752.59;;;20.72;74.45
62402;BME280;48440;51.224;22.506;2023-07-13T01:52:22;98746.16;;;20.68;74.74
62402;BME280;48440;51.224;22.506;2023-07-13T01:54:47;98750.56;;;20.60;75.29
62402;BME280;48440;51.224;22.506;2023-07-13T01:57:13;98750.38;;;20.65;75.02
62402;BME280;48440;51.224;22.506;2023-07-13T01:59:39;98756.75;;;20.57;75.20
62402;BME280;48440;51.224;22.506;2023-07-13T02:02:04;98761.78;;;20.55;75.27
62402;BME280;48440;51.224;22.506;2023-07-13T02:04:30;98763.88;;;20.58;74.99
62402;BME280;48440;51.224;22.506;2023-07-13T02:06:55;98759.00;;;20.55;75.12
62402;BME280;48440;51.224;22.506;2023-07-13T02:09:21;98750.75;;;20.55;75.31
62402;BME280;48440;51.224;22.506;2023-07-13T02:11:46;98764.34;;;20.60;74.55
62402;BME280;48440;51.224;22.506;2023-07-13T02:14:12;98767.91;;;20.61;74.41
62402;BME280;48440;51.224;22.506;2023-07-13T02:16:37;98769.44;;;20.50;74.64
62402;BME280;48440;51.224;22.506;2023-07-13T02:19:03;98773.94;;;20.54;74.83
62402;BME280;48440;51.224;22.506;2023-07-13T02:21:28;98779.00;;;20.52;74.61
62402;BME280;48440;51.224;22.506;2023-07-13T02:23:54;98774.63;;;20.51;74.83
62402;BME280;48440;51.224;22.506;2023-07-13T02:26:20;98772.69;;;20.52;74.77
62402;BME280;48440;51.224;22.506;2023-07-13T02:28:46;98769.44;;;20.50;74.78
62402;BME280;48440;51.224;22.506;2023-07-13T02:31:14;98762.91;;;20.54;74.54
62402;BME280;48440;51.224;22.506;2023-07-13T02:33:40;98764.53;;;20.55;74.66
62402;BME280;48440;51.224;22.506;2023-07-13T02:36:06;98771.00;;;20.59;74.29
62402;BME280;48440;51.224;22.506;2023-07-13T02:38:33;98780.88;;;20.60;74.45
62402;BME280;48440;51.224;22.506;2023-07-13T02:41:00;98787.69;;;20.63;74.54
62402;BME280;48440;51.224;22.506;2023-07-13T02:43:27;98790.44;;;20.63;74.49
62402;BME280;48440;51.224;22.506;2023-07-13T02:45:52;98783.16;;;20.58;74.48
62402;BME280;48440;51.224;22.506;2023-07-13T02:48:18;98788.66;;;20.58;74.63
62402;BME280;48440;51.224;22.506;2023-07-13T02:50:46;98792.72;;;20.61;74.89
62402;BME280;48440;51.224;22.506;2023-07-13T02:53:12;98790.94;;;20.56;74.89
62402;BME280;48440;51.224;22.506;2023-07-13T02:55:37;98790.03;;;20.52;74.70
62402;BME280;48440;51.224;22.506;2023-07-13T02:58:03;98795.72;;;20.47;74.74
62402;BME280;48440;51.224;22.506;2023-07-13T03:00:29;98785.69;;;20.43;74.59
62402;BME280;48440;51.224;22.506;2023-07-13T03:02:55;98787.44;;;20.47;74.37
62402;BME280;48440;51.224;22.506;2023-07-13T03:05:25;98788.75;;;20.50;74.65
62402;BME280;48440;51.224;22.506;2023-07-13T03:07:50;98795.53;;;20.52;74.31
62402;BME280;48440;51.224;22.506;2023-07-13T03:10:16;98793.56;;;20.53;74.72
62402;BME280;48440;51.224;22.506;2023-07-13T03:12:42;98797.34;;;20.48;74.70
62402;BME280;48440;51.224;22.506;2023-07-13T03:15:07;98798.97;;;20.41;75.17
62402;BME280;48440;51.224;22.506;2023-07-13T03:17:33;98799.78;;;20.41;74.96
62402;BME280;48440;51.224;22.506;2023-07-13T03:19:59;98805.97;;;20.38;74.97
62402;BME280;48440;51.224;22.506;2023-07-13T03:22:24;98809.69;;;20.42;74.67
62402;BME280;48440;51.224;22.506;2023-07-13T03:24:49;98795.88;;;20.51;74.77
62402;BME280;48440;51.224;22.506;2023-07-13T03:27:16;98796.59;;;20.60;74.48
62402;BME280;48440;51.224;22.506;2023-07-13T03:29:42;98804.50;;;20.70;74.76
62402;BME280;48440;51.224;22.506;2023-07-13T03:32:07;98799.72;;;20.79;74.26
62402;BME280;48440;51.224;22.506;2023-07-13T03:34:33;98809.91;;;20.87;74.07
62402;BME280;48440;51.224;22.506;2023-07-13T03:36:59;98806.16;;;20.92;73.93
62402;BME280;48440;51.224;22.506;2023-07-13T03:39:24;98805.16;;;20.96;74.15
62402;BME280;48440;51.224;22.506;2023-07-13T03:41:50;98807.25;;;20.99;73.97
62402;BME280;48440;51.224;22.506;2023-07-13T03:44:16;98808.63;;;21.06;73.97
62402;BME280;48440;51.224;22.506;2023-07-13T03:46:42;98809.00;;;21.04;74.13
62402;BME280;48440;51.224;22.506;2023-07-13T03:49:08;98816.81;;;21.02;74.37
62402;BME280;48440;51.224;22.506;2023-07-13T03:51:33;98814.84;;;21.03;74.49
62402;BME280;48440;51.224;22.506;2023-07-13T03:53:59;98820.38;;;21.03;74.73
62402;BME280;48440;51.224;22.506;2023-07-13T03:56:24;98813.25;;;21.02;74.20
62402;BME280;48440;51.224;22.506;2023-07-13T03:58:50;98805.22;;;21.09;73.74
62402;BME280;48440;51.224;22.506;2023-07-13T04:01:18;98804.00;;;21.18;73.35
62402;BME280;48440;51.224;22.506;2023-07-13T04:03:44;98809.28;;;21.32;73.16
62402;BME280;48440;51.224;22.506;2023-07-13T04:06:18;98813.59;;;21.42;72.63
62402;BME280;48440;51.224;22.506;2023-07-13T04:08:49;98797.81;;;21.63;72.08
62402;BME280;48440;51.224;22.506;2023-07-13T04:11:15;98797.75;;;21.84;71.54
62402;BME280;48440;51.224;22.506;2023-07-13T04:13:41;98806.16;;;21.87;70.78
62402;BME280;48440;51.224;22.506;2023-07-13T04:16:06;98803.19;;;21.92;70.87
62402;BME280;48440;51.224;22.506;2023-07-13T04:18:32;98795.16;;;21.99;71.17
62402;BME280;48440;51.224;22.506;2023-07-13T04:20:57;98797.41;;;22.18;70.80
62402;BME280;48440;51.224;22.506;2023-07-13T04:23:23;98802.84;;;22.27;70.41
62402;BME280;48440;51.224;22.506;2023-07-13T04:25:49;98809.03;;;22.36;70.03
62402;BME280;48440;51.224;22.506;2023-07-13T04:28:18;98819.66;;;22.34;70.23
62402;BME280;48440;51.224;22.506;2023-07-13T04:30:44;98819.06;;;22.28;70.01
62402;BME280;48440;51.224;22.506;2023-07-13T04:33:10;98828.25;;;22.20;70.41
62402;BME280;48440;51.224;22.506;2023-07-13T04:35:35;98836.63;;;22.12;71.04
62402;BME280;48440;51.224;22.506;2023-07-13T04:38:02;98832.50;;;22.06;71.77
62402;BME280;48440;51.224;22.506;2023-07-13T04:40:29;98829.41;;;22.07;71.14
62402;BME280;48440;51.224;22.506;2023-07-13T04:42:55;98836.88;;;22.07;70.94
62402;BME280;48440;51.224;22.506;2023-07-13T04:45:22;98833.53;;;22.01;70.98
62402;BME280;48440;51.224;22.506;2023-07-13T04:47:49;98836.41;;;22.05;71.21
62402;BME280;48440;51.224;22.506;2023-07-13T04:50:15;98840.13;;;22.09;71.24
62402;BME280;48440;51.224;22.506;2023-07-13T04:52:45;98836.31;;;22.13;71.06
62402;BME280;48440;51.224;22.506;2023-07-13T04:55:10;98839.31;;;22.08;71.19
62402;BME280;48440;51.224;22.506;2023-07-13T04:57:36;98837.34;;;22.09;71.50
62402;BME280;48440;51.224;22.506;2023-07-13T05:00:02;98847.59;;;22.08;72.08
62402;BME280;48440;51.224;22.506;2023-07-13T05:02:32;98838.50;;;22.08;71.29
62402;BME280;48440;51.224;22.506;2023-07-13T05:04:58;98848.75;;;22.07;71.11
62402;BME280;48440;51.224;22.506;2023-07-13T05:07:25;98845.97;;;22.07;71.05
62402;BME280;48440;51.224;22.506;2023-07-13T05:09:51;98846.78;;;22.08;71.11
62402;BME280;48440;51.224;22.506;2023-07-13T05:12:17;98851.16;;;22.09;70.87
62402;BME280;48440;51.224;22.506;2023-07-13T05:14:43;98855.06;;;22.08;71.17
62402;BME280;48440;51.224;22.506;2023-07-13T05:17:09;98868.19;;;22.11;71.37
62402;BME280;48440;51.224;22.506;2023-07-13T05:19:34;98863.38;;;22.08;71.68
62402;BME280;48440;51.224;22.506;2023-07-13T05:22:00;98863.00;;;22.09;71.51
62402;BME280;48440;51.224;22.506;2023-07-13T05:24:25;98861.03;;;22.10;71.82
62402;BME280;48440;51.224;22.506;2023-07-13T05:26:51;98867.28;;;22.07;71.69
62402;BME280;48440;51.224;22.506;2023-07-13T05:29:17;98872.56;;;22.12;71.53
62402;BME280;48440;51.224;22.506;2023-07-13T05:31:42;98866.69;;;22.13;71.80
62402;BME280;48440;51.224;22.506;2023-07-13T05:34:07;98864.06;;;22.17;70.94
62402;BME280;48440;51.224;22.506;2023-07-13T05:36:33;98879.97;;;22.20;70.46
62402;BME280;48440;51.224;22.506;2023-07-13T05:38:59;98891.00;;;22.20;70.86
62402;BME280;48440;51.224;22.506;2023-07-13T05:41:24;98892.97;;;22.19;71.04
62402;BME280;48440;51.224;22.506;2023-07-13T05:43:49;98903.22;;;22.19;70.86
62402;BME280;48440;51.224;22.506;2023-07-13T05:46:15;98908.41;;;22.20;71.35
62402;BME280;48440;51.224;22.506;2023-07-13T05:48:41;98898.16;;;22.21;70.99
62402;BME280;48440;51.224;22.506;2023-07-13T05:51:07;98907.94;;;22.18;71.05
62402;BME280;48440;51.224;22.506;2023-07-13T05:53:34;98913.94;;;22.20;70.98
62402;BME280;48440;51.224;22.506;2023-07-13T05:56:00;98910.69;;;22.18;70.63
62402;BME280;48440;51.224;22.506;2023-07-13T05:58:25;98911.16;;;22.20;71.28
62402;BME280;48440;51.224;22.506;2023-07-13T06:01:05;98903.94;;;22.28;71.10
62402;BME280;48440;51.224;22.506;2023-07-13T06:03:32;98896.25;;;22.33;70.57
62402;BME280;48440;51.224;22.506;2023-07-13T06:05:57;98897.50;;;22.36;70.23
62402;BME280;48440;51.224;22.506;2023-07-13T06:08:25;98888.84;;;22.38;69.88
62402;BME280;48440;51.224;22.506;2023-07-13T06:10:51;98887.38;;;22.40;69.60
62402;BME280;48440;51.224;22.506;2023-07-13T06:13:16;98878.06;;;22.45;69.84
62402;BME280;48440;51.224;22.506;2023-07-13T06:15:48;98875.53;;;22.52;69.93
62402;BME280;48440;51.224;22.506;2023-07-13T06:18:13;98867.25;;;22.52;69.47
62402;BME280;48440;51.224;22.506;2023-07-13T06:20:38;98866.34;;;22.60;69.18
62402;BME280;48440;51.224;22.506;2023-07-13T06:23:06;98864.94;;;22.66;68.84
62402;BME280;48440;51.224;22.506;2023-07-13T06:25:32;98874.97;;;22.71;68.57
62402;BME280;48440;51.224;22.506;2023-07-13T06:27:57;98866.66;;;22.71;68.45
62402;BME280;48440;51.224;22.506;2023-07-13T06:30:23;98859.41;;;22.66;68.27
62402;BME280;48440;51.224;22.506;2023-07-13T06:32:49;98860.91;;;22.63;68.17
62402;BME280;48440;51.224;22.506;2023-07-13T06:35:14;98857.31;;;22.63;67.33
62402;BME280;48440;51.224;22.506;2023-07-13T06:37:40;98850.44;;;22.69;66.91
62402;BME280;48440;51.224;22.506;2023-07-13T06:40:06;98848.47;;;22.69;66.19
62402;BME280;48440;51.224;22.506;2023-07-13T06:42:31;98846.97;;;22.72;65.98
62402;BME280;48440;51.224;22.506;2023-07-13T06:44:57;98847.91;;;22.76;66.02
62402;BME280;48440;51.224;22.506;2023-07-13T06:47:22;98835.03;;;22.80;66.39
62402;BME280;48440;51.224;22.506;2023-07-13T06:49:48;98840.38;;;23.13;65.42
62402;BME280;48440;51.224;22.506;2023-07-13T06:52:13;98838.00;;;23.52;65.55
62402;BME280;48440;51.224;22.506;2023-07-13T06:54:39;98839.66;;;23.81;64.81
62402;BME280;48440;51.224;22.506;2023-07-13T06:57:04;98845.56;;;23.95;63.80
62402;BME280;48440;51.224;22.506;2023-07-13T06:59:30;98832.50;;;23.95;62.75
62402;BME280;48440;51.224;22.506;2023-07-13T07:01:55;98832.25;;;24.00;62.61
62402;BME280;48440;51.224;22.506;2023-07-13T07:04:21;98835.84;;;24.01;62.47
62402;BME280;48440;51.224;22.506;2023-07-13T07:06:47;98845.78;;;24.18;62.30
62402;BME280;48440;51.224;22.506;2023-07-13T07:09:12;98846.81;;;24.25;61.93
62402;BME280;48440;51.224;22.506;2023-07-13T07:11:38;98837.13;;;24.19;61.80
62402;BME280;48440;51.224;22.506;2023-07-13T07:14:04;98839.97;;;24.23;62.04
62402;BME280;48440;51.224;22.506;2023-07-13T07:16:29;98834.00;;;24.21;61.32
62402;BME280;48440;51.224;22.506;2023-07-13T07:18:55;98824.16;;;24.23;61.78
62402;BME280;48440;51.224;22.506;2023-07-13T07:21:20;98831.72;;;24.39;61.46
62402;BME280;48440;51.224;22.506;2023-07-13T07:23:48;98829.00;;;24.89;61.39
62402;BME280;48440;51.224;22.506;2023-07-13T07:26:14;98835.63;;;25.00;60.16
62402;BME280;48440;51.224;22.506;2023-07-13T07:28:39;98840.38;;;24.84;59.90
62402;BME280;48440;51.224;22.506;2023-07-13T07:31:05;98846.47;;;24.58;60.07
62402;BME280;48440;51.224;22.506;2023-07-13T07:33:31;98872.66;;;24.29;61.00
62402;BME280;48440;51.224;22.506;2023-07-13T07:35:57;98878.47;;;23.96;60.66
62402;BME280;48440;51.224;22.506;2023-07-13T07:38:22;98883.66;;;23.70;62.32
62402;BME280;48440;51.224;22.506;2023-07-13T07:40:48;98892.34;;;23.44;64.79
62402;BME280;48440;51.224;22.506;2023-07-13T07:43:13;98891.34;;;23.24;66.08
62402;BME280;48440;51.224;22.506;2023-07-13T07:45:39;98890.66;;;23.15;66.07
62402;BME280;48440;51.224;22.506;2023-07-13T07:48:05;98893.22;;;23.08;67.14
62402;BME280;48440;51.224;22.506;2023-07-13T07:50:32;98891.50;;;23.04;67.99
62402;BME280;48440;51.224;22.506;2023-07-13T07:52:58;98891.25;;;22.96;69.01
62402;BME280;48440;51.224;22.506;2023-07-13T07:55:24;98896.78;;;22.96;69.37
62402;BME280;48440;51.224;22.506;2023-07-13T07:57:52;98899.56;;;22.84;69.48
62402;BME280;48440;51.224;22.506;2023-07-13T08:00:18;98904.50;;;22.79;69.83
62402;BME280;48440;51.224;22.506;2023-07-13T08:02:44;98911.66;;;22.80;69.83
62402;BME280;48440;51.224;22.506;2023-07-13T08:05:10;98916.56;;;22.74;70.70
62402;BME280;48440;51.224;22.506;2023-07-13T08:07:37;98924.06;;;22.74;70.45
62402;BME280;48440;51.224;22.506;2023-07-13T08:10:06;98913.69;;;22.71;70.72
62402;BME280;48440;51.224;22.506;2023-07-13T08:12:36;98914.16;;;22.73;70.51
62402;BME280;48440;51.224;22.506;2023-07-13T08:15:02;98911.72;;;22.71;70.46
62402;BME280;48440;51.224;22.506;2023-07-13T08:17:28;98917.72;;;22.73;70.98
62402;BME280;48440;51.224;22.506;2023-07-13T08:19:54;98912.19;;;22.73;71.35
62402;BME280;48440;51.224;22.506;2023-07-13T08:22:19;98921.41;;;22.77;71.20
62402;BME280;48440;51.224;22.506;2023-07-13T08:24:45;98922.72;;;22.80;71.14
62402;BME280;48440;51.224;22.506;2023-07-13T08:27:12;98925.59;;;22.83;71.50
62402;BME280;48440;51.224;22.506;2023-07-13T08:29:38;98926.88;;;22.86;71.79
62402;BME280;48440;51.224;22.506;2023-07-13T08:32:05;98935.41;;;22.93;72.01
62402;BME280;48440;51.224;22.506;2023-07-13T08:34:34;98928.94;;;23.01;71.76
62402;BME280;48440;51.224;22.506;2023-07-13T08:37:00;98928.38;;;23.08;71.22
62402;BME280;48440;51.224;22.506;2023-07-13T08:39:25;98925.25;;;23.21;70.70
62402;BME280;48440;51.224;22.506;2023-07-13T08:41:57;98920.41;;;23.30;71.08
62402;BME280;48440;51.224;22.506;2023-07-13T08:44:40;98913.56;;;23.40;70.46
62402;BME280;48440;51.224;22.506;2023-07-13T08:47:11;98921.31;;;23.34;70.42
62402;BME280;48440;51.224;22.506;2023-07-13T08:49:39;98908.53;;;23.18;70.74
62402;BME280;48440;51.224;22.506;2023-07-13T08:52:10;98913.84;;;23.11;71.62
62402;BME280;48440;51.224;22.506;2023-07-13T08:54:44;98910.28;;;22.98;72.16
62402;BME280;48440;51.224;22.506;2023-07-13T08:57:15;98902.56;;;23.04;72.17
62402;BME280;48440;51.224;22.506;2023-07-13T08:59:42;98905.66;;;23.02;72.12
62402;BME280;48440;51.224;22.506;2023-07-13T09:04:42;98896.69;;;23.05;72.96
62402;BME280;48440;51.224;22.506;2023-07-13T09:12:31;98883.72;;;23.21;73.76
62402;BME280;48440;51.224;22.506;2023-07-13T09:15:02;98883.84;;;23.25;73.23
62402;BME280;48440;51.224;22.506;2023-07-13T09:17:46;98880.28;;;23.24;73.36
62402;BME280;48440;51.224;22.506;2023-07-13T09:20:30;98878.88;;;23.30;72.58
62402;BME280;48440;51.224;22.506;2023-07-13T09:23:01;98881.50;;;23.39;72.49
62402;BME280;48440;51.224;22.506;2023-07-13T09:25:34;98884.94;;;23.48;72.19
62402;BME280;48440;51.224;22.506;2023-07-13T09:28:08;98879.88;;;23.50;73.11
62402;BME280;48440;51.224;22.506;2023-07-13T09:30:43;98875.41;;;23.58;71.56
62402;BME280;48440;51.224;22.506;2023-07-13T09:33:10;98874.47;;;23.54;72.25
62402;BME280;48440;51.224;22.506;2023-07-13T09:35:36;98866.63;;;23.56;71.06
62402;BME280;48440;51.224;22.506;2023-07-13T09:38:12;98866.03;;;23.50;72.28
62402;BME280;48440;51.224;22.506;2023-07-13T09:44:09;98871.63;;;23.38;71.77
62402;BME280;48440;51.224;22.506;2023-07-13T09:46:36;98875.38;;;23.46;70.63
62402;BME280;48440;51.224;22.506;2023-07-13T09:49:01;98870.19;;;23.56;70.75
62402;BME280;48440;51.224;22.506;2023-07-13T09:51:27;98868.69;;;23.59;70.57
62402;BME280;48440;51.224;22.506;2023-07-13T09:53:53;98878.56;;;23.72;70.55
62402;BME280;48440;51.224;22.506;2023-07-13T09:56:26;98876.59;;;23.73;70.31
62402;BME280;48440;51.224;22.506;2023-07-13T09:58:53;98876.81;;;23.80;70.25
62402;BME280;48440;51.224;22.506;2023-07-13T10:01:38;98871.13;;;23.88;70.13
62402;BME280;48440;51.224;22.506;2023-07-13T10:04:14;98876.75;;;23.92;68.86
62402;BME280;48440;51.224;22.506;2023-07-13T10:06:44;98872.91;;;23.96;68.92
62402;BME280;48440;51.224;22.506;2023-07-13T10:09:15;98867.13;;;24.01;68.49
62402;BME280;48440;51.224;22.506;2023-07-13T10:11:41;98859.72;;;24.06;67.68
62402;BME280;48440;51.224;22.506;2023-07-13T10:14:14;98861.94;;;24.00;68.38
62402;BME280;48440;51.224;22.506;2023-07-13T10:16:43;98856.75;;;23.98;68.01
62402;BME280;48440;51.224;22.506;2023-07-13T10:24:23;98841.34;;;23.85;68.11
62402;BME280;48440;51.224;22.506;2023-07-13T10:27:13;98840.34;;;23.78;66.81
62402;BME280;48440;51.224;22.506;2023-07-13T10:29:48;98835.97;;;23.77;67.07
62402;BME280;48440;51.224;22.506;2023-07-13T10:32:14;98840.03;;;23.67;66.59
62402;BME280;48440;51.224;22.506;2023-07-13T10:34:45;98837.66;;;23.53;66.65
62402;BME280;48440;51.224;22.506;2023-07-13T10:37:19;98838.34;;;23.50;66.77
62402;BME280;48440;51.224;22.506;2023-07-13T10:39:48;98841.34;;;23.45;67.04
62402;BME280;48440;51.224;22.506;2023-07-13T10:42:23;98842.50;;;23.44;66.53
62402;BME280;48440;51.224;22.506;2023-07-13T10:44:51;98839.50;;;23.49;66.78
62402;BME280;48440;51.224;22.506;2023-07-13T10:47:16;98836.88;;;23.53;66.18
62402;BME280;48440;51.224;22.506;2023-07-13T10:49:44;98838.00;;;23.52;65.49
62402;BME280;48440;51.224;22.506;2023-07-13T10:52:48;98837.78;;;23.57;66.32
62402;BME280;48440;51.224;22.506;2023-07-13T10:58:24;98841.47;;;23.61;67.11
62402;BME280;48440;51.224;22.506;2023-07-13T11:03:55;98836.06;;;23.52;67.41
62402;BME280;48440;51.224;22.506;2023-07-13T11:08:55;98840.09;;;23.43;67.54
62402;BME280;48440;51.224;22.506;2023-07-13T11:24:29;98827.75;;;23.40;67.76
62402;BME280;48440;51.224;22.506;2023-07-13T11:27:30;98825.78;;;23.53;67.47
62402;BME280;48440;51.224;22.506;2023-07-13T11:33:09;98820.97;;;23.93;67.66
62402;BME280;48440;51.224;22.506;2023-07-13T11:35:43;98820.22;;;24.09;66.94
62402;BME280;48440;51.224;22.506;2023-07-13T11:38:19;98822.91;;;24.21;65.93
62402;BME280;48440;51.224;22.506;2023-07-13T11:40:47;98821.97;;;24.29;65.63
62402;BME280;48440;51.224;22.506;2023-07-13T11:43:15;98815.00;;;24.35;65.25
62402;BME280;48440;51.224;22.506;2023-07-13T11:45:42;98805.59;;;24.40;65.73
62402;BME280;48440;51.224;22.506;2023-07-13T11:48:23;98809.25;;;24.44;65.05
62402;BME280;48440;51.224;22.506;2023-07-13T11:50:51;98802.53;;;24.45;64.84
62402;BME280;48440;51.224;22.506;2023-07-13T11:53:19;98805.31;;;24.45;64.37
62402;BME280;48440;51.224;22.506;2023-07-13T11:55:44;98796.19;;;24.44;64.65
62402;BME280;48440;51.224;22.506;2023-07-13T11:58:18;98794.53;;;24.40;64.70
62402;BME280;48440;51.224;22.506;2023-07-13T12:00:46;98804.44;;;24.41;64.26
62402;BME280;48440;51.224;22.506;2023-07-13T12:03:21;98804.88;;;24.43;64.19
62402;BME280;48440;51.224;22.506;2023-07-13T12:06:23;98803.72;;;24.44;64.18
62402;BME280;48440;51.224;22.506;2023-07-13T12:08:50;98804.16;;;24.46;64.30
62402;BME280;48440;51.224;22.506;2023-07-13T12:11:17;98796.63;;;24.46;64.48
62402;BME280;48440;51.224;22.506;2023-07-13T12:13:43;98799.41;;;24.46;64.23
62402;BME280;48440;51.224;22.506;2023-07-13T12:16:21;98797.00;;;24.45;64.32
62402;BME280;48440;51.224;22.506;2023-07-13T12:18:52;98801.69;;;24.41;64.74
62402;BME280;48440;51.224;22.506;2023-07-13T12:21:19;98795.31;;;24.40;64.90
62402;BME280;48440;51.224;22.506;2023-07-13T12:23:48;98798.91;;;24.41;64.84
62402;BME280;48440;51.224;22.506;2023-07-13T12:26:15;98805.25;;;24.41;64.90
62402;BME280;48440;51.224;22.506;2023-07-13T12:29:07;98800.94;;;24.44;64.63
62402;BME280;48440;51.224;22.506;2023-07-13T12:31:41;98786.72;;;24.45;64.29
62402;BME280;48440;51.224;22.506;2023-07-13T12:34:11;98782.78;;;24.46;64.21
62402;BME280;48440;51.224;22.506;2023-07-13T12:36:40;98783.50;;;24.43;64.72
62402;BME280;48440;51.224;22.506;2023-07-13T12:39:20;98777.69;;;24.32;64.52
62402;BME280;48440;51.224;22.506;2023-07-13T12:41:47;98781.09;;;24.26;64.16
62402;BME280;48440;51.224;22.506;2023-07-13T12:44:18;98778.09;;;24.19;64.28
62402;BME280;48440;51.224;22.506;2023-07-13T12:46:56;98778.41;;;24.14;64.49
62402;BME280;48440;51.224;22.506;2023-07-13T12:49:30;98781.63;;;24.16;64.75
62402;BME280;48440;51.224;22.506;2023-07-13T12:51:59;98783.19;;;24.17;64.81
62402;BME280;48440;51.224;22.506;2023-07-13T12:54:26;98784.00;;;24.17;64.68
62402;BME280;48440;51.224;22.506;2023-07-13T12:56:53;98784.38;;;24.16;64.28
62402;BME280;48440;51.224;22.506;2023-07-13T12:59:21;98781.16;;;24.14;64.58
62402;BME280;48440;51.224;22.506;2023-07-13T13:01:48;98781.16;;;24.14;64.61
62402;BME280;48440;51.224;22.506;2023-07-13T13:04:15;98780.72;;;24.12;65.51
62402;BME280;48440;51.224;22.506;2023-07-13T13:06:41;98771.59;;;24.11;65.36
62402;BME280;48440;51.224;22.506;2023-07-13T13:09:13;98776.69;;;24.09;65.05
62402;BME280;48440;51.224;22.506;2023-07-13T13:11:39;98774.72;;;24.10;65.17
62402;BME280;48440;51.224;22.506;2023-07-13T13:14:05;98779.81;;;24.08;65.58
62402;BME280;48440;51.224;22.506;2023-07-13T13:16:54;98774.28;;;24.08;65.51
62402;BME280;48440;51.224;22.506;2023-07-13T13:19:25;98768.38;;;24.09;66.13
62402;BME280;48440;51.224;22.506;2023-07-13T13:21:52;98767.22;;;24.10;66.35
62402;BME280;48440;51.224;22.506;2023-07-13T13:24:20;98763.38;;;24.15;67.30
62402;BME280;48440;51.224;22.506;2023-07-13T13:26:48;98767.38;;;24.17;66.80
62402;BME280;48440;51.224;22.506;2023-07-13T13:29:16;98766.66;;;24.20;67.61
62402;BME280;48440;51.224;22.506;2023-07-13T13:31:42;98767.47;;;24.21;67.09
62402;BME280;48440;51.224;22.506;2023-07-13T13:34:10;98765.84;;;24.20;66.91
62402;BME280;48440;51.224;22.506;2023-07-13T13:36:35;98776.13;;;24.19;66.73
62402;BME280;48440;51.224;22.506;2023-07-13T13:39:01;98777.66;;;24.17;66.47